This is the latest recevied weather packets stored in our database for station/object IT9CYW-10. If no packets are shown the sender has not sent any weather packets the latest 1 day(s).
| Time | Temp. | Humidity | Pressure | Rain* | Wind** | Luminosity | Snow |
|---|---|---|---|---|---|---|---|
| 1778077703 | 21.11° C | 62% | 994.2 hPa | - | - | 209 W/m² | - |
| 1778076802 | 21.67° C | 55% | 994.2 hPa | - | - | 139 W/m² | - |
| 1778075902 | 21.67° C | 56% | 994.2 hPa | - | - | 159 W/m² | - |
| 1778075002 | 21.11° C | 61% | 994 hPa | - | - | 167 W/m² | - |
| 1778072301 | 21.11° C | 60% | 994.7 hPa | - | - | 105 W/m² | - |
| 1778070501 | 21.67° C | 59% | 994.5 hPa | - | - | 237 W/m² | - |
| 1778069601 | 21.67° C | 60% | 994.2 hPa | - | - | 264 W/m² | - |
| 1778065101 | 25° C | 43% | 994 hPa | - | - | 279 W/m² | - |
| 1778064201 | 26.67° C | 38% | 994 hPa | - | - | 354 W/m² | - |
| 1778063301 | 25° C | 43% | 994 hPa | - | - | 622 W/m² | - |
| 1778058800 | 21.67° C | 54% | 994.2 hPa | - | - | 376 W/m² | - |
| 1778057900 | 21.11° C | 62% | 994.5 hPa | - | - | 141 W/m² | - |
| 1778057000 | 21.11° C | 56% | 994.2 hPa | - | - | 134 W/m² | - |
| 1778056100 | 21.11° C | 57% | 994.4 hPa | - | - | 148 W/m² | - |
| 1778054299 | 21.67° C | 54% | 994.4 hPa | - | - | 222 W/m² | - |
| 1778053399 | 20.56° C | 55% | 994.7 hPa | - | - | 202 W/m² | - |
| 1778052499 | 20° C | 58% | 994.7 hPa | - | - | 220 W/m² | - |
| 1778048898 | 19.44° C | 66% | 995.2 hPa | - | - | 337 W/m² | - |
| 1778047998 | 17.22° C | 74% | 995.2 hPa | - | - | 253 W/m² | - |
| 1778047098 | 16.11° C | 78% | 995.2 hPa | - | - | 111 W/m² | - |
| 1778046198 | 15.56° C | 75% | 995.2 hPa | - | - | 40 W/m² | - |
| 1778044402 | 16.11° C | 70% | 995.4 hPa | - | - | 29 W/m² | - |
| 1778043502 | 16.11° C | 71% | 995.2 hPa | - | - | 20 W/m² | - |
| 1778042602 | 15.56° C | 73% | 995.2 hPa | - | - | 17 W/m² | - |
| 1778041702 | 16.11° C | 72% | 995 hPa | - | - | 10 W/m² | - |
* Rain since midnight (hover to see other rain measurements)
** Current wind speed in m/s (hover to see current wind gust speed)